Time;durP1;ratioP1;P1;durP2;ratioP2;P2;SDS_P1;SDS_P2;PMS_P1;PMS_P2;Temp;Humidity;BMP_temperature;BMP_pressure;BME280_temperature;BME280_humidity;BME280_pressure;Samples;Min_cycle;Max_cycle;Signal;HPM_P1;HPM_P2
2023/10/04 00:00:37;;;;;;;8.90;3.25;;;9.10;99.90;;;;;;5089797;28;20501;-62
2023/10/04 00:03:04;;;;;;;9.63;2.95;;;9.10;99.90;;;;;;5093520;28;20044;-65
2023/10/04 00:05:30;;;;;;;9.50;3.20;;;9.00;99.90;;;;;;5089513;28;20020;-63
2023/10/04 00:07:56;;;;;;;13.77;3.35;;;9.00;99.90;;;;;;5085916;28;20020;-66
2023/10/04 00:10:23;;;;;;;11.90;3.78;;;9.00;99.90;;;;;;5088513;28;20179;-65
2023/10/04 00:12:49;;;;;;;8.18;3.50;;;9.00;99.90;;;;;;5090511;28;22083;-66
2023/10/04 00:15:20;;;;;;;5.47;2.88;;;9.00;99.90;;;;;;5071803;28;20073;-66
2023/10/04 00:17:46;;;;;;;8.40;3.33;;;9.00;99.90;;;;;;5087631;28;20051;-66
2023/10/04 00:20:14;;;;;;;12.80;3.35;;;9.00;99.90;;;;;;5090538;28;20618;-67
2023/10/04 00:22:40;;;;;;;6.72;2.50;;;9.00;99.90;;;;;;5086447;28;20043;-66
2023/10/04 00:25:11;;;;;;;7.30;2.80;;;9.00;99.90;;;;;;5088902;28;20035;-66
2023/10/04 00:27:42;;;;;;;8.70;2.78;;;9.00;99.90;;;;;;5094989;28;20027;-66
2023/10/04 00:30:17;;;;;;;10.07;3.05;;;9.00;99.90;;;;;;5094255;28;20056;-66
2023/10/04 00:32:44;;;;;;;10.82;3.47;;;9.00;99.90;;;;;;5094026;28;20020;-65
2023/10/04 00:35:19;;;;;;;11.18;2.92;;;9.00;99.90;;;;;;5098449;28;20047;-65
2023/10/04 00:37:51;;;;;;;7.18;3.25;;;9.00;99.90;;;;;;5087971;28;20025;-64
2023/10/04 00:40:21;;;;;;;5.20;2.53;;;8.90;99.90;;;;;;5095802;28;20060;-66
2023/10/04 00:42:49;;;;;;;5.50;2.75;;;9.00;99.90;;;;;;5088237;28;20051;-67
2023/10/04 00:45:16;;;;;;;6.15;3.10;;;9.00;99.90;;;;;;5091214;28;20027;-66
2023/10/04 00:47:47;;;;;;;10.05;3.38;;;9.00;99.90;;;;;;5089996;28;20023;-67
2023/10/04 00:50:17;;;;;;;9.13;3.28;;;9.10;99.90;;;;;;5089584;28;21492;-66
2023/10/04 00:52:52;;;;;;;10.40;3.05;;;9.10;99.90;;;;;;5090766;28;20024;-66
2023/10/04 00:55:19;;;;;;;8.18;3.00;;;9.10;99.90;;;;;;5090709;28;20012;-66
2023/10/04 00:57:49;;;;;;;6.53;3.20;;;9.10;99.90;;;;;;5088985;28;20085;-70
2023/10/04 01:00:17;;;;;;;6.63;2.35;;;9.10;99.90;;;;;;5084282;28;20031;-65
2023/10/04 01:02:44;;;;;;;7.13;2.70;;;9.10;99.90;;;;;;5087891;28;20069;-66
2023/10/04 01:05:11;;;;;;;8.43;2.85;;;9.00;99.90;;;;;;5088932;28;20028;-66
2023/10/04 01:07:38;;;;;;;9.43;3.25;;;9.00;99.90;;;;;;5088421;28;20026;-65
2023/10/04 01:10:16;;;;;;;6.25;2.60;;;9.00;99.90;;;;;;5092321;28;20024;-67
2023/10/04 01:12:45;;;;;;;6.53;2.80;;;9.00;99.90;;;;;;5087549;28;20024;-64
2023/10/04 01:15:30;;;;;;;8.10;2.60;;;9.00;99.90;;;;;;5083705;28;20081;-66
2023/10/04 01:17:57;;;;;;;14.65;3.17;;;9.00;99.90;;;;;;5087759;28;20031;-66
2023/10/04 01:20:24;;;;;;;9.88;2.92;;;9.00;99.90;;;;;;5088852;28;20024;-66
2023/10/04 01:22:51;;;;;;;10.55;3.40;;;9.00;99.90;;;;;;5082915;28;20429;-66
2023/10/04 01:25:18;;;;;;;9.07;3.13;;;8.90;99.90;;;;;;5088139;28;20042;-66
2023/10/04 01:27:44;;;;;;;11.02;2.67;;;8.90;99.90;;;;;;5083749;28;20042;-67
2023/10/04 01:30:11;;;;;;;4.15;2.67;;;8.90;99.90;;;;;;5070770;28;20024;-67
2023/10/04 01:32:37;;;;;;;9.95;2.95;;;8.90;99.90;;;;;;5087512;28;20032;-66
2023/10/04 01:35:05;;;;;;;7.18;3.80;;;8.90;99.90;;;;;;5089020;28;20497;-66
2023/10/04 01:37:32;;;;;;;10.52;2.97;;;8.80;99.90;;;;;;5085956;28;22108;-67
2023/10/04 01:39:58;;;;;;;9.25;4.68;;;8.80;99.90;;;;;;5089020;28;20020;-66
2023/10/04 01:42:25;;;;;;;9.10;3.13;;;8.80;99.90;;;;;;5086732;28;20060;-66
2023/10/04 01:44:51;;;;;;;5.75;2.72;;;8.80;99.90;;;;;;5085145;28;20464;-66
2023/10/04 01:47:19;;;;;;;9.65;3.53;;;8.80;99.90;;;;;;5087070;28;20023;-65
2023/10/04 01:49:45;;;;;;;7.00;3.13;;;8.80;99.90;;;;;;5087767;28;20062;-66
2023/10/04 01:52:11;;;;;;;12.45;3.33;;;8.70;99.90;;;;;;5087947;28;20062;-66
2023/10/04 01:54:36;;;;;;;9.75;2.55;;;8.70;99.90;;;;;;5090569;28;20093;-66
2023/10/04 01:57:05;;;;;;;8.70;3.25;;;8.70;99.90;;;;;;5092537;28;20495;-66
2023/10/04 01:59:31;;;;;;;8.38;3.08;;;8.70;99.90;;;;;;5088974;28;20028;-66
2023/10/04 02:01:57;;;;;;;12.45;3.35;;;8.70;99.90;;;;;;5088588;28;20110;-67
2023/10/04 02:04:23;;;;;;;6.97;2.88;;;8.70;99.90;;;;;;5093103;28;20031;-66
2023/10/04 02:06:49;;;;;;;13.10;3.72;;;8.70;99.90;;;;;;5090390;28;20020;-66
2023/10/04 02:09:16;;;;;;;13.73;3.63;;;8.80;99.90;;;;;;5068211;28;20500;-67
2023/10/04 02:11:45;;;;;;;7.57;3.30;;;8.80;99.90;;;;;;5091757;28;20024;-67
2023/10/04 02:14:11;;;;;;;11.82;3.08;;;8.80;99.90;;;;;;5090296;28;20031;-68
2023/10/04 02:16:37;;;;;;;15.45;3.72;;;8.80;99.90;;;;;;5091604;28;20046;-65
2023/10/04 02:19:03;;;;;;;13.15;3.20;;;8.80;99.90;;;;;;5092574;28;20111;-66
2023/10/04 02:21:28;;;;;;;17.85;3.42;;;8.90;99.90;;;;;;5088288;28;20162;-66
2023/10/04 02:23:54;;;;;;;15.35;2.97;;;8.90;99.90;;;;;;5088714;28;20059;-65
2023/10/04 02:26:23;;;;;;;8.73;3.53;;;8.90;99.90;;;;;;5092688;28;20032;-68
2023/10/04 02:28:52;;;;;;;14.48;2.88;;;8.90;99.90;;;;;;5090556;28;20050;-66
2023/10/04 02:31:19;;;;;;;10.30;3.13;;;8.90;99.90;;;;;;5090753;28;20028;-66
2023/10/04 02:33:46;;;;;;;9.73;2.88;;;8.90;99.90;;;;;;5090578;28;20051;-66
2023/10/04 02:36:11;;;;;;;9.38;3.50;;;8.90;99.90;;;;;;5091419;28;20372;-65
2023/10/04 02:38:37;;;;;;;9.70;3.00;;;8.90;99.90;;;;;;5094296;28;20023;-65
2023/10/04 02:41:05;;;;;;;6.20;2.70;;;8.90;99.90;;;;;;5090767;28;20070;-64
2023/10/04 02:43:32;;;;;;;14.30;3.08;;;9.00;99.90;;;;;;5090770;28;20448;-67
2023/10/04 02:45:58;;;;;;;8.85;3.10;;;9.00;99.90;;;;;;5088291;28;20022;-66
2023/10/04 02:48:24;;;;;;;11.80;2.65;;;9.00;99.90;;;;;;5091831;28;20085;-66
2023/10/04 02:50:50;;;;;;;6.43;3.00;;;9.00;99.90;;;;;;5090280;28;20024;-67
2023/10/04 02:53:17;;;;;;;13.40;3.35;;;9.00;99.90;;;;;;5092039;28;20024;-66
2023/10/04 02:55:46;;;;;;;11.05;2.55;;;9.10;99.90;;;;;;5090746;28;20052;-66
2023/10/04 02:58:13;;;;;;;16.35;3.45;;;9.10;99.90;;;;;;5091247;28;20020;-66
2023/10/04 03:00:45;;;;;;;6.75;2.70;;;9.10;99.90;;;;;;5097988;28;20031;-67
2023/10/04 03:03:14;;;;;;;10.10;3.33;;;9.20;99.90;;;;;;5088899;28;20051;-66
2023/10/04 03:05:40;;;;;;;10.75;2.83;;;9.20;99.90;;;;;;5090186;28;20024;-66
2023/10/04 03:08:07;;;;;;;6.28;3.03;;;9.20;99.90;;;;;;5073381;28;20020;-66
2023/10/04 03:10:34;;;;;;;14.50;3.30;;;9.20;99.90;;;;;;5092349;28;20077;-67
2023/10/04 03:13:11;;;;;;;8.75;2.50;;;9.30;99.90;;;;;;5088786;28;20024;-63
2023/10/04 03:15:38;;;;;;;13.18;3.00;;;9.30;99.90;;;;;;5089851;28;20024;-67
2023/10/04 03:18:13;;;;;;;12.02;3.13;;;9.30;99.90;;;;;;5091165;28;20509;-67
2023/10/04 03:20:45;;;;;;;12.50;2.92;;;9.30;99.90;;;;;;5076555;28;20077;-66
2023/10/04 03:23:11;;;;;;;15.80;2.47;;;9.30;99.90;;;;;;5088575;28;20454;-66
2023/10/04 03:25:36;;;;;;;9.52;3.03;;;9.30;99.90;;;;;;5093907;28;20062;-66
2023/10/04 03:28:02;;;;;;;13.38;2.85;;;9.30;99.90;;;;;;5093849;28;20120;-68
2023/10/04 03:30:28;;;;;;;10.68;3.13;;;9.30;99.90;;;;;;5092198;28;20020;-68
2023/10/04 03:32:56;;;;;;;7.82;2.53;;;9.30;99.90;;;;;;5089997;28;20021;-68
2023/10/04 03:35:26;;;;;;;15.30;2.95;;;9.30;99.90;;;;;;5090580;28;20024;-66
2023/10/04 03:37:58;;;;;;;14.45;3.65;;;9.40;99.90;;;;;;5089218;28;20492;-67
2023/10/04 03:40:24;;;;;;;11.25;3.70;;;9.40;99.90;;;;;;5089754;28;20511;-65
2023/10/04 03:42:50;;;;;;;13.60;3.13;;;9.40;99.90;;;;;;5089646;28;20123;-64
2023/10/04 03:45:18;;;;;;;14.30;3.72;;;9.40;99.90;;;;;;5092874;28;20114;-63
2023/10/04 03:47:45;;;;;;;5.85;2.63;;;9.40;99.90;;;;;;5090660;28;20016;-65
2023/10/04 03:50:14;;;;;;;11.65;3.22;;;9.40;99.90;;;;;;5093253;28;20020;-64
2023/10/04 03:52:40;;;;;;;8.93;3.53;;;9.40;99.90;;;;;;5090141;28;20046;-65
2023/10/04 03:55:06;;;;;;;8.85;3.03;;;9.40;99.90;;;;;;5095529;28;20024;-67
2023/10/04 03:57:33;;;;;;;9.65;3.63;;;9.40;99.90;;;;;;5091412;28;20028;-64
2023/10/04 04:00:10;;;;;;;8.27;3.83;;;9.40;99.90;;;;;;5091007;28;20024;-65
2023/10/04 04:02:36;;;;;;;10.48;3.85;;;9.40;99.90;;;;;;5088436;28;20404;-65
2023/10/04 04:05:05;;;;;;;14.07;3.45;;;9.50;99.90;;;;;;5088761;28;20020;-63
2023/10/04 04:07:30;;;;;;;9.95;3.53;;;9.50;99.90;;;;;;5085686;28;20064;-66
2023/10/04 04:09:56;;;;;;;10.35;3.67;;;9.50;99.90;;;;;;5093154;28;20066;-65
2023/10/04 04:12:22;;;;;;;9.23;3.63;;;9.50;99.90;;;;;;5077646;28;20026;-65
2023/10/04 04:14:48;;;;;;;10.10;3.15;;;9.60;99.90;;;;;;5075571;28;20036;-64
2023/10/04 04:17:14;;;;;;;17.80;4.03;;;9.50;99.90;;;;;;5094319;28;20036;-65
2023/10/04 04:19:39;;;;;;;15.95;3.42;;;9.60;99.90;;;;;;5077761;28;20438;-64
2023/10/04 04:22:06;;;;;;;7.18;3.15;;;9.60;99.90;;;;;;5073871;28;20031;-65
2023/10/04 04:24:31;;;;;;;18.52;3.72;;;9.60;99.90;;;;;;5088235;28;20448;-66
2023/10/04 04:27:00;;;;;;;15.10;3.58;;;9.60;99.90;;;;;;5096851;28;20032;-65
2023/10/04 04:29:27;;;;;;;12.57;4.57;;;9.60;99.90;;;;;;5095667;28;20031;-65
2023/10/04 04:31:53;;;;;;;4.57;3.08;;;9.60;99.90;;;;;;5101203;28;20016;-66
2023/10/04 04:34:19;;;;;;;11.75;3.17;;;9.50;99.90;;;;;;5091058;28;20438;-67
2023/10/04 04:36:46;;;;;;;8.07;3.25;;;9.50;99.90;;;;;;5089844;28;20054;-65
2023/10/04 04:39:16;;;;;;;14.98;4.13;;;9.50;99.90;;;;;;5085996;28;20024;-67
2023/10/04 04:41:42;;;;;;;18.38;4.82;;;9.50;99.90;;;;;;5092678;28;20030;-65
2023/10/04 04:44:08;;;;;;;9.57;3.40;;;9.40;99.90;;;;;;5086468;28;20020;-66
2023/10/04 04:46:34;;;;;;;10.43;3.78;;;9.40;99.90;;;;;;5089851;28;20043;-66
2023/10/04 04:49:00;;;;;;;10.95;2.83;;;9.30;99.90;;;;;;5098726;28;20023;-63
2023/10/04 04:51:27;;;;;;;9.65;3.97;;;9.30;99.90;;;;;;5076935;28;20015;-66
2023/10/04 04:53:53;;;;;;;15.40;3.80;;;9.20;99.90;;;;;;5099947;28;20066;-67
2023/10/04 04:56:21;;;;;;;14.65;3.50;;;9.20;99.90;;;;;;5091926;28;20070;-65
2023/10/04 04:58:47;;;;;;;9.70;3.70;;;9.20;99.90;;;;;;5090600;28;20069;-65
2023/10/04 05:01:14;;;;;;;13.48;4.05;;;9.20;99.90;;;;;;5091554;28;20437;-66
2023/10/04 05:03:45;;;;;;;8.25;3.35;;;9.20;99.90;;;;;;5100283;28;20023;-66
2023/10/04 05:06:22;;;;;;;8.13;3.50;;;9.10;99.90;;;;;;5091175;28;20020;-65
2023/10/04 05:08:54;;;;;;;6.45;3.35;;;9.10;99.90;;;;;;5096106;28;20055;-64
2023/10/04 05:11:20;;;;;;;7.28;3.53;;;9.00;99.90;;;;;;5094360;28;20020;-66
2023/10/04 05:13:46;;;;;;;6.32;3.22;;;9.00;99.90;;;;;;5084335;28;20039;-66
2023/10/04 05:16:12;;;;;;;12.00;3.42;;;9.00;99.90;;;;;;5093556;28;20013;-65
2023/10/04 05:18:38;;;;;;;14.85;4.22;;;8.90;99.90;;;;;;5091434;28;20046;-66
2023/10/04 05:21:04;;;;;;;11.77;4.07;;;8.90;99.90;;;;;;5090302;28;20028;-63
2023/10/04 05:23:30;;;;;;;10.70;4.03;;;8.90;99.90;;;;;;5086993;28;20061;-65
2023/10/04 05:25:56;;;;;;;7.38;4.25;;;8.90;99.90;;;;;;5099890;28;20580;-65
2023/10/04 05:28:22;;;;;;;18.80;4.68;;;8.80;99.90;;;;;;5090202;28;20034;-66
2023/10/04 05:30:50;;;;;;;8.38;3.70;;;8.80;99.90;;;;;;5090820;28;20024;-66
2023/10/04 05:33:19;;;;;;;13.57;4.20;;;8.80;99.90;;;;;;5092600;28;20026;-66
2023/10/04 05:35:47;;;;;;;19.88;5.28;;;8.70;99.90;;;;;;5088982;28;20028;-65
2023/10/04 05:38:16;;;;;;;11.00;4.75;;;8.70;99.90;;;;;;5097825;28;20583;-66
2023/10/04 05:40:44;;;;;;;10.38;4.78;;;8.80;99.90;;;;;;5093997;28;20024;-65
2023/10/04 05:43:12;;;;;;;14.13;5.13;;;8.70;99.90;;;;;;5090789;28;20473;-65
2023/10/04 05:45:37;;;;;;;18.63;5.97;;;8.80;99.90;;;;;;5098531;28;20032;-66
2023/10/04 05:48:05;;;;;;;10.48;4.90;;;8.90;99.90;;;;;;5082829;28;20443;-66
2023/10/04 05:50:32;;;;;;;15.70;4.97;;;9.00;99.90;;;;;;5097269;28;20074;-65
2023/10/04 05:53:01;;;;;;;9.77;4.82;;;9.10;99.90;;;;;;5089491;28;20534;-65
2023/10/04 05:55:27;;;;;;;10.73;5.32;;;9.30;99.90;;;;;;5100394;28;20055;-67
2023/10/04 05:57:53;;;;;;;12.95;4.97;;;9.40;99.90;;;;;;5088720;28;20502;-66
2023/10/04 06:02:50;;;;;;;17.17;5.13;;;9.60;99.90;;;;;;5094542;28;20024;-65
2023/10/04 06:05:19;;;;;;;16.23;5.65;;;9.70;99.90;;;;;;5086975;28;20365;-66
2023/10/04 06:07:46;;;;;;;11.43;5.30;;;9.70;99.90;;;;;;5094284;28;20481;-65
2023/10/04 06:10:13;;;;;;;12.43;5.25;;;9.80;99.90;;;;;;5097070;28;20068;-67
2023/10/04 06:12:39;;;;;;;11.50;4.72;;;9.90;99.90;;;;;;5086068;28;20021;-65
2023/10/04 06:15:10;;;;;;;9.10;4.43;;;9.90;99.90;;;;;;5095949;28;20442;-63
2023/10/04 06:17:42;;;;;;;12.57;4.78;;;9.90;99.90;;;;;;5088659;28;20027;-65
2023/10/04 06:20:25;;;;;;;12.65;5.30;;;9.90;99.90;;;;;;5095424;28;20371;-65
2023/10/04 06:22:52;;;;;;;12.45;5.00;;;10.00;99.90;;;;;;5082888;28;20150;-65
2023/10/04 06:25:21;;;;;;;17.15;6.75;;;10.20;99.90;;;;;;5088962;28;20036;-65
2023/10/04 06:27:47;;;;;;;23.40;5.47;;;10.30;99.90;;;;;;5093815;28;20385;-65
2023/10/04 06:30:12;;;;;;;13.25;4.32;;;10.40;99.90;;;;;;5097422;28;20025;-66
2023/10/04 06:32:39;;;;;;;9.27;5.45;;;10.40;99.90;;;;;;5088762;28;20024;-65
2023/10/04 06:35:08;;;;;;;13.25;5.15;;;10.50;99.90;;;;;;5087165;28;20020;-63
2023/10/04 06:37:34;;;;;;;10.88;4.80;;;10.50;99.90;;;;;;5087011;28;20028;-64
2023/10/04 06:40:01;;;;;;;16.08;3.92;;;10.60;99.90;;;;;;5084603;28;20078;-64
2023/10/04 06:42:26;;;;;;;14.10;3.63;;;10.70;99.90;;;;;;5092917;28;20024;-65
2023/10/04 06:44:52;;;;;;;13.25;5.00;;;10.70;99.90;;;;;;5097916;28;20255;-65
2023/10/04 06:47:18;;;;;;;10.73;4.40;;;10.80;99.90;;;;;;5090447;28;20058;-66
2023/10/04 06:49:43;;;;;;;14.88;3.83;;;10.80;99.90;;;;;;5092003;28;20036;-67
2023/10/04 06:52:09;;;;;;;8.82;3.80;;;10.90;99.90;;;;;;5089768;28;20044;-65
2023/10/04 06:54:34;;;;;;;13.63;4.30;;;11.10;99.90;;;;;;5090265;28;20397;-65
2023/10/04 06:57:00;;;;;;;12.50;3.85;;;11.20;99.90;;;;;;5090203;28;20024;-65
2023/10/04 06:59:26;;;;;;;9.65;4.32;;;11.40;99.90;;;;;;5090621;28;20035;-66
2023/10/04 07:01:51;;;;;;;9.80;3.20;;;11.50;99.90;;;;;;5091816;28;20443;-66
2023/10/04 07:04:18;;;;;;;8.23;3.22;;;11.60;99.90;;;;;;5088722;28;20028;-65
2023/10/04 07:06:44;;;;;;;9.70;3.17;;;11.80;99.90;;;;;;5089018;28;20036;-65
2023/10/04 07:09:10;;;;;;;8.57;3.22;;;11.90;99.90;;;;;;5089035;28;20051;-65
2023/10/04 07:11:36;;;;;;;9.18;3.05;;;12.10;99.90;;;;;;5091324;28;20107;-65
2023/10/04 07:14:04;;;;;;;8.52;3.72;;;12.00;99.90;;;;;;5090847;28;20024;-64
2023/10/04 07:16:30;;;;;;;8.68;2.78;;;12.10;99.90;;;;;;5091737;28;20073;-65
2023/10/04 07:18:58;;;;;;;7.93;2.92;;;12.00;99.90;;;;;;5089199;28;20054;-65
2023/10/04 07:21:23;;;;;;;7.00;2.75;;;12.00;99.90;;;;;;5084854;28;20050;-64
2023/10/04 07:23:49;;;;;;;12.60;4.35;;;12.20;99.90;;;;;;5090219;28;20051;-66
2023/10/04 07:26:15;;;;;;;7.35;2.92;;;12.20;99.90;;;;;;5092424;28;20480;-66
2023/10/04 07:28:41;;;;;;;11.48;3.42;;;12.40;99.90;;;;;;5089826;28;20512;-65
2023/10/04 07:31:07;;;;;;;8.60;3.17;;;12.40;99.90;;;;;;5091890;28;20018;-63
2023/10/04 07:33:33;;;;;;;9.07;3.15;;;12.30;99.90;;;;;;5090825;28;20139;-66
2023/10/04 07:35:59;;;;;;;5.75;3.08;;;12.40;99.90;;;;;;5091005;28;20095;-65
2023/10/04 07:38:25;;;;;;;12.85;4.57;;;12.50;99.90;;;;;;5085286;28;20392;-65
2023/10/04 07:40:50;;;;;;;12.90;3.78;;;12.90;99.90;;;;;;5091893;28;20032;-65
2023/10/04 07:43:16;;;;;;;9.02;3.17;;;13.10;99.90;;;;;;5091519;28;20128;-66
2023/10/04 07:45:41;;;;;;;5.32;2.88;;;13.20;99.90;;;;;;5023384;28;20016;-65
2023/10/04 07:48:10;;;;;;;14.32;3.92;;;13.20;99.90;;;;;;5072845;28;20062;-65
2023/10/04 07:50:36;;;;;;;9.40;3.00;;;13.30;99.90;;;;;;5091840;28;20027;-66
2023/10/04 07:53:04;;;;;;;7.50;3.47;;;13.50;99.90;;;;;;5089818;28;20032;-65
2023/10/04 07:55:30;;;;;;;7.88;2.92;;;13.80;99.90;;;;;;5090499;28;20009;-65
2023/10/04 07:57:58;;;;;;;7.00;2.67;;;13.90;99.90;;;;;;5088736;28;20031;-65
2023/10/04 08:00:24;;;;;;;6.15;2.30;;;14.10;99.90;;;;;;5090147;28;20028;-66
2023/10/04 08:02:51;;;;;;;11.05;2.55;;;14.30;99.90;;;;;;5091013;28;21238;-65
2023/10/04 08:05:21;;;;;;;9.77;2.33;;;14.60;99.90;;;;;;5090073;28;20055;-65
2023/10/04 08:07:48;;;;;;;8.35;2.80;;;14.70;99.90;;;;;;5088361;28;20020;-66
2023/10/04 08:10:18;;;;;;;6.43;2.83;;;14.80;99.90;;;;;;5092177;28;20424;-65
2023/10/04 08:12:46;;;;;;;33.55;11.85;;;14.90;99.90;;;;;;5093031;28;20040;-66
2023/10/04 08:15:19;;;;;;;9.18;2.58;;;14.90;99.90;;;;;;5078761;28;20039;-65
2023/10/04 08:17:48;;;;;;;7.38;2.70;;;15.00;99.90;;;;;;5086404;28;20046;-66
2023/10/04 08:20:14;;;;;;;6.63;2.60;;;15.00;99.90;;;;;;5085736;28;20025;-67
2023/10/04 08:22:41;;;;;;;5.32;2.40;;;14.90;99.90;;;;;;5070332;28;20069;-66
2023/10/04 08:25:13;;;;;;;6.95;2.63;;;15.00;99.90;;;;;;5090754;28;20023;-63
2023/10/04 08:27:39;;;;;;;9.27;2.80;;;15.10;99.90;;;;;;5087932;28;20032;-66
2023/10/04 08:30:13;;;;;;;12.98;2.75;;;14.90;99.90;;;;;;5089835;28;20023;-67
2023/10/04 08:32:46;;;;;;;4.60;2.13;;;14.90;99.90;;;;;;5068090;28;20032;-67
2023/10/04 08:35:27;;;;;;;7.07;2.83;;;15.10;99.90;;;;;;5089739;28;20027;-67
2023/10/04 08:37:54;;;;;;;5.47;2.47;;;15.30;99.90;;;;;;5088072;28;20020;-65
2023/10/04 08:40:20;;;;;;;6.97;2.78;;;15.60;99.90;;;;;;5090123;28;20035;-65
2023/10/04 08:42:50;;;;;;;12.57;3.25;;;15.90;99.90;;;;;;5090594;28;20150;-65
2023/10/04 08:45:17;;;;;;;5.97;2.17;;;16.00;99.90;;;;;;5092277;28;20031;-65
2023/10/04 08:47:50;;;;;;;8.13;2.65;;;16.20;99.90;;;;;;5087994;28;20024;-66
2023/10/04 08:50:19;;;;;;;9.32;2.17;;;16.50;99.90;;;;;;5088095;28;20135;-65
2023/10/04 08:52:46;;;;;;;6.28;2.40;;;16.90;99.90;;;;;;5089366;28;20027;-66
2023/10/04 08:55:16;;;;;;;6.85;2.28;;;17.00;99.90;;;;;;5086555;28;20024;-66
2023/10/04 08:57:43;;;;;;;12.07;2.53;;;17.00;99.90;;;;;;5088457;28;20027;-64
2023/10/04 09:00:13;;;;;;;11.25;2.65;;;17.50;99.90;;;;;;5087500;28;20146;-67
2023/10/04 09:02:50;;;;;;;11.88;2.60;;;18.00;99.90;;;;;;5089515;28;20024;-66
2023/10/04 09:05:17;;;;;;;8.60;2.25;;;17.80;99.90;;;;;;5089408;28;20112;-66
2023/10/04 09:07:49;;;;;;;9.45;2.22;;;18.00;99.90;;;;;;5089020;28;20120;-65
2023/10/04 09:10:16;;;;;;;7.60;2.13;;;18.00;99.90;;;;;;5088400;28;20024;-64
2023/10/04 09:12:42;;;;;;;6.25;2.00;;;17.80;99.90;;;;;;5068148;28;20471;-65
2023/10/04 09:15:10;;;;;;;6.10;2.30;;;17.80;99.90;;;;;;5084009;28;20544;-68
2023/10/04 09:17:55;;;;;;;7.78;2.53;;;17.90;99.90;;;;;;5089327;28;20109;-65
2023/10/04 09:20:24;;;;;;;10.27;2.63;;;17.90;99.90;;;;;;5091348;28;20085;-66
2023/10/04 09:22:50;;;;;;;10.25;2.83;;;17.80;99.90;;;;;;5086105;28;20116;-66
2023/10/04 09:25:16;;;;;;;8.93;2.17;;;18.00;99.90;;;;;;5089527;28;20019;-65
2023/10/04 09:27:56;;;;;;;10.50;2.67;;;18.10;99.90;;;;;;5088826;28;20031;-65
2023/10/04 09:30:26;;;;;;;12.02;2.40;;;17.90;99.90;;;;;;5085990;28;20027;-66
2023/10/04 09:32:52;;;;;;;12.13;3.08;;;17.40;99.90;;;;;;5086674;28;20036;-65
2023/10/04 09:35:21;;;;;;;10.98;2.38;;;17.30;99.90;;;;;;5086800;28;20031;-65
2023/10/04 09:37:48;;;;;;;12.15;3.00;;;17.20;99.90;;;;;;5081103;28;20020;-67
2023/10/04 09:40:16;;;;;;;11.85;2.35;;;17.00;99.90;;;;;;5069460;28;20028;-66
2023/10/04 09:42:51;;;;;;;7.63;2.10;;;17.00;99.90;;;;;;5085944;28;20016;-67
2023/10/04 09:45:21;;;;;;;10.90;2.08;;;17.30;99.90;;;;;;5086857;28;20039;-64
2023/10/04 09:47:53;;;;;;;9.00;2.25;;;17.40;99.90;;;;;;5092785;28;20023;-66
2023/10/04 09:50:24;;;;;;;12.30;2.80;;;17.70;99.90;;;;;;5090680;28;20106;-66
2023/10/04 09:52:50;;;;;;;11.25;2.90;;;17.70;99.90;;;;;;5086735;28;20413;-65
2023/10/04 09:55:16;;;;;;;9.63;1.85;;;17.60;99.90;;;;;;5088943;28;20020;-68
2023/10/04 09:57:43;;;;;;;6.85;1.83;;;17.60;99.90;;;;;;5088627;28;20024;-65
2023/10/04 10:00:22;;;;;;;12.07;1.98;;;17.80;99.90;;;;;;5090005;28;20028;-66
2023/10/04 10:02:52;;;;;;;10.40;2.25;;;17.90;99.90;;;;;;5082012;28;20134;-66
2023/10/04 10:05:26;;;;;;;10.57;2.22;;;18.00;99.90;;;;;;5086173;28;20028;-65
2023/10/04 10:07:53;;;;;;;14.65;3.17;;;18.10;99.90;;;;;;5086087;28;20026;-65
2023/10/04 10:10:22;;;;;;;7.32;2.38;;;17.90;99.90;;;;;;5085946;28;20103;-66
2023/10/04 10:12:51;;;;;;;6.95;2.20;;;17.90;99.90;;;;;;5089052;28;20020;-66
2023/10/04 10:15:18;;;;;;;3.90;1.77;;;18.00;99.90;;;;;;5076787;28;20106;-66
2023/10/04 10:17:46;;;;;;;8.88;2.00;;;18.00;99.90;;;;;;5076560;28;20416;-66
2023/10/04 10:20:15;;;;;;;10.98;2.72;;;18.30;99.90;;;;;;5072512;28;20027;-70
2023/10/04 10:22:59;;;;;;;10.90;2.35;;;18.30;99.90;;;;;;5088646;28;20055;-65
2023/10/04 10:25:37;;;;;;;8.07;3.35;;;18.10;99.90;;;;;;5073412;28;20030;-65
2023/10/04 10:28:04;;;;;;;6.10;2.22;;;18.10;99.90;;;;;;5093992;28;20020;-65
2023/10/04 10:30:33;;;;;;;5.63;1.98;;;18.20;99.90;;;;;;5095333;28;20011;-65
2023/10/04 10:33:00;;;;;;;11.00;3.03;;;18.20;99.90;;;;;;5091995;28;20050;-66
2023/10/04 10:35:57;;;;;;;7.35;2.22;;;18.10;99.90;;;;;;5093332;28;20064;-66
2023/10/04 10:38:41;;;;;;;8.20;1.98;;;18.30;99.90;;;;;;5097256;28;20038;-66
2023/10/04 10:41:27;;;;;;;8.88;2.30;;;18.50;99.90;;;;;;5096535;28;20070;-62
2023/10/04 10:44:14;;;;;;;6.85;2.95;;;18.50;99.90;;;;;;5058312;28;20040;-65
2023/10/04 10:47:14;;;;;;;7.75;2.60;;;18.60;99.90;;;;;;5094100;28;20024;-68
2023/10/04 10:49:44;;;;;;;12.90;2.65;;;18.30;99.90;;;;;;5075240;28;20119;-65
2023/10/04 10:52:19;;;;;;;11.77;2.25;;;18.20;99.90;;;;;;5089712;28;20020;-66
2023/10/04 10:54:45;;;;;;;8.93;2.25;;;18.20;99.90;;;;;;5094564;28;20020;-65
2023/10/04 10:57:12;;;;;;;7.43;2.05;;;18.40;99.90;;;;;;5090281;28;20034;-66
2023/10/04 10:59:37;;;;;;;6.53;2.85;;;18.80;99.90;;;;;;5090185;28;20031;-66
2023/10/04 11:02:04;;;;;;;8.70;2.15;;;18.80;99.90;;;;;;5088768;28;20032;-66
2023/10/04 11:04:31;;;;;;;8.25;2.35;;;18.60;99.90;;;;;;5085773;28;20024;-66
2023/10/04 11:06:57;;;;;;;6.82;2.13;;;18.70;99.90;;;;;;5068778;28;20036;-67
2023/10/04 11:09:22;;;;;;;6.13;2.03;;;18.70;99.90;;;;;;5092027;28;20586;-66
2023/10/04 11:11:49;;;;;;;7.80;1.95;;;18.70;99.90;;;;;;5084424;28;20020;-66
2023/10/04 11:14:16;;;;;;;8.38;2.58;;;18.50;99.90;;;;;;5088838;28;20024;-68
2023/10/04 11:16:42;;;;;;;8.73;2.13;;;18.50;99.90;;;;;;5085675;27;20380;-67
2023/10/04 11:19:09;;;;;;;8.55;2.30;;;18.40;99.90;;;;;;5087818;28;20508;-65
2023/10/04 11:21:35;;;;;;;8.10;2.40;;;18.40;99.90;;;;;;5088651;28;20509;-66
2023/10/04 11:24:03;;;;;;;5.70;1.88;;;18.80;99.90;;;;;;5089722;28;20095;-65
2023/10/04 11:26:30;;;;;;;5.85;2.50;;;18.80;99.90;;;;;;5087282;28;20020;-65
2023/10/04 11:28:58;;;;;;;8.82;2.65;;;18.80;99.90;;;;;;5088586;28;20107;-67
2023/10/04 11:31:24;;;;;;;8.27;2.65;;;19.00;99.90;;;;;;5095064;28;20081;-67
2023/10/04 11:33:55;;;;;;;7.88;2.35;;;19.20;99.90;;;;;;5093475;28;20439;-66
2023/10/04 11:36:22;;;;;;;12.68;5.10;;;19.30;99.90;;;;;;5079907;28;20115;-67
2023/10/04 11:38:52;;;;;;;8.18;2.65;;;18.90;99.90;;;;;;5085515;28;20031;-66
2023/10/04 11:41:19;;;;;;;6.22;2.45;;;18.90;99.90;;;;;;5091342;28;20103;-64
2023/10/04 11:43:45;;;;;;;7.70;2.65;;;18.80;99.90;;;;;;5089904;28;20024;-66
2023/10/04 11:46:11;;;;;;;9.70;2.85;;;18.80;99.90;;;;;;5089475;28;20024;-66
2023/10/04 11:48:36;;;;;;;9.35;2.75;;;18.60;99.90;;;;;;5090947;28;20024;-68
2023/10/04 11:51:04;;;;;;;12.25;2.88;;;18.70;99.90;;;;;;5089858;28;20020;-66
2023/10/04 11:53:45;;;;;;;8.35;3.10;;;18.50;99.90;;;;;;5094926;28;20020;-63
2023/10/04 11:56:11;;;;;;;8.23;2.83;;;18.60;99.90;;;;;;5091097;28;20551;-66
2023/10/04 11:58:50;;;;;;;11.30;3.22;;;18.30;99.90;;;;;;5089079;28;20032;-66
2023/10/04 12:01:16;;;;;;;7.90;2.72;;;18.10;99.90;;;;;;5086653;28;20031;-66
2023/10/04 12:03:42;;;;;;;10.20;2.78;;;18.10;99.90;;;;;;5091013;28;20028;-66
2023/10/04 12:06:08;;;;;;;9.82;3.60;;;18.10;99.90;;;;;;5089695;28;20493;-66
2023/10/04 12:08:35;;;;;;;8.95;3.33;;;18.10;99.90;;;;;;5087753;28;20036;-65
2023/10/04 12:11:12;;;;;;;11.32;2.90;;;18.20;99.90;;;;;;5098036;28;20081;-65
2023/10/04 12:13:38;;;;;;;12.93;4.63;;;18.20;99.90;;;;;;5085723;28;20020;-67
2023/10/04 12:16:03;;;;;;;7.30;3.00;;;18.20;99.90;;;;;;5093127;28;20032;-65
2023/10/04 12:18:30;;;;;;;10.23;3.33;;;18.40;99.90;;;;;;5087052;28;20036;-66
2023/10/04 12:20:55;;;;;;;7.57;2.78;;;18.40;99.90;;;;;;5095031;28;20024;-66
2023/10/04 12:23:22;;;;;;;11.45;4.03;;;18.60;99.90;;;;;;5090353;28;20065;-66
2023/10/04 12:25:48;;;;;;;11.93;3.80;;;18.50;99.90;;;;;;5089204;28;20035;-66
2023/10/04 12:28:14;;;;;;;11.73;3.33;;;18.30;99.90;;;;;;5093062;28;20031;-65
2023/10/04 12:30:39;;;;;;;11.52;3.05;;;18.10;99.90;;;;;;5090319;28;20027;-66
2023/10/04 12:33:05;;;;;;;9.25;3.03;;;18.30;99.90;;;;;;5090485;28;20362;-63
2023/10/04 12:35:31;;;;;;;10.52;3.33;;;18.20;99.90;;;;;;5089093;28;20145;-67
2023/10/04 12:37:57;;;;;;;12.32;3.47;;;18.20;99.90;;;;;;5088701;28;20016;-66
2023/10/04 12:40:25;;;;;;;11.23;3.00;;;18.20;99.90;;;;;;5091640;28;20033;-66
2023/10/04 12:42:52;;;;;;;10.27;3.40;;;18.10;99.90;;;;;;5088077;28;20032;-65
2023/10/04 12:45:21;;;;;;;10.93;3.88;;;18.10;99.90;;;;;;5078963;28;20584;-66
2023/10/04 12:47:47;;;;;;;7.00;3.13;;;18.20;99.90;;;;;;5087544;28;20028;-66
2023/10/04 12:50:16;;;;;;;10.30;3.05;;;18.20;99.90;;;;;;5088122;28;20024;-65
2023/10/04 12:52:45;;;;;;;9.05;2.90;;;18.30;99.90;;;;;;5086350;28;20528;-67
2023/10/04 12:55:12;;;;;;;8.77;2.67;;;18.40;99.90;;;;;;5099199;28;20453;-66